Bookmark and Share
Track history (hours):
 

Padre Island

More information available from US FCC via Universal Licensing System and Coast Guard Vessel Documentation Center.

Last reported at 2014-Apr-17 06:08 UTC. Time now 2014-Apr-17 06:42 UTC.
Position N 40°29' W 074°07'.

Length 86 m; draft 19.6 m.

Type: Dredging. MMSI: 367525000.

NotesDate/timePositionNaut miles runAvg speedWind from/ knotsBaromVisibWave heightAir tempDewpointWater temp
2014-Apr-17 06:08N 40°29' W 074°07'5 5.4
2014-Apr-17 05:16N 40°29' W 074°01'7 4.1
2014-Apr-17 03:31N 40°23' W 073°55'5 3.6
2014-Apr-17 02:13N 40°28' W 073°57'7 9.5
2014-Apr-17 01:32N 40°29' W 074°06'1 1.1
2014-Apr-17 00:21N 40°29' W 074°07'0 0.5
2014-Apr-16 23:17N 40°29' W 074°08'0 0.0
2014-Apr-16 22:26N 40°29' W 074°08'1 0.6
2014-Apr-16 21:31N 40°30' W 074°08'4 4.1
2014-Apr-16 20:32N 40°29' W 074°03'8 2.4
2014-Apr-16 17:16N 40°23' W 073°55'1210.1
2014-Apr-16 16:06N 40°30' W 074°08'0 0.0
2014-Apr-15 20:32N 40°30' W 074°08'8 8.1
2014-Apr-15 19:30N 40°28' W 073°57'8 1.1
2014-Apr-15 12:30N 40°29' W 074°07'0 0.0
2014-Apr-15 11:32N 40°29' W 074°07'0 0.4
2014-Apr-15 10:34N 40°29' W 074°08'9 3.1
2014-Apr-15 07:34N 40°27' W 073°56'9 2.2
2014-Apr-15 03:34N 40°29' W 074°07'0 0.0
2014-Apr-15 02:33N 40°29' W 074°07'0 0.4
2014-Apr-15 01:33N 40°29' W 074°08'1 0.7
2014-Apr-15 00:33N 40°29' W 074°07'5 4.8
2014-Apr-14 23:34N 40°29' W 074°01'7 6.6
2014-Apr-14 22:32N 40°23' W 073°55'0 0.1
2014-Apr-14 21:33N 40°24' W 073°55'6 5.6
2014-Apr-14 20:32N 40°29' W 073°59'7 6.8
2014-Apr-14 19:33N 40°29' W 074°07'0 0.0
2014-Apr-14 18:33N 40°29' W 074°07'0 0.3
2014-Apr-14 17:33N 40°29' W 074°08'2 1.9
2014-Apr-14 16:34N 40°29' W 074°05'6 6.3
2014-Apr-14 15:33N 40°28' W 073°57'5 4.5
2014-Apr-14 14:32N 40°23' W 073°55'10 3.5
2014-Apr-14 11:34N 40°29' W 074°06'1 0.8
2014-Apr-14 10:32N 40°29' W 074°07'0 0.4
2014-Apr-14 09:33N 40°29' W 074°08'5 5.1
2014-Apr-14 08:31N 40°29' W 074°01'7 7.0
2014-Apr-14 07:32N 40°23' W 073°55'0 0.2
2014-Apr-14 06:33N 40°24' W 073°55'7 6.8
2014-Apr-14 05:33N 40°29' W 074°01'2 0.2
2014-Apr-13 22:27N 40°29' W 074°03'3 1.6
2014-Apr-13 20:27N 40°29' W 074°08'0 0.3
2014-Apr-13 19:27N 40°29' W 074°08'6 6.3
2014-Apr-13 18:32N 40°29' W 073°60'7 6.5
2014-Apr-13 17:30N 40°23' W 073°55'0 0.3
2014-Apr-13 16:22N 40°24' W 073°56'9 8.7
2014-Apr-13 15:21N 40°29' W 074°05'2 2.4
2014-Apr-13 14:31N 40°29' W 074°07'0 0.0
2014-Apr-13 13:31N 40°29' W 074°07'5 4.6
2014-Apr-13 12:32N 40°29' W 074°02'7 7.1
2014-Apr-13 11:33N 40°24' W 073°55'0 0.1
2014-Apr-13 10:33N 40°24' W 073°55'3 3.3
2014-Apr-13 09:33N 40°27' W 073°56'8 8.6
2014-Apr-13 08:33N 40°29' W 074°07'0 0.3
2014-Apr-13 07:33N 40°29' W 074°07'0 0.0
2014-Apr-13 06:33N 40°29' W 074°08'0 0.4
2014-Apr-13 05:34N 40°29' W 074°07'2 1.8
2014-Apr-13 04:33N 40°29' W 074°05'6 6.3
2014-Apr-13 03:33N 40°28' W 073°57'4 4.3
2014-Apr-13 02:33N 40°24' W 073°55'1 0.6
2014-Apr-13 01:33N 40°24' W 073°55'9 8.8
2014-Apr-13 00:33N 40°29' W 074°04'3 2.5
2014-Apr-12 23:31N 40°29' W 074°07'6 2.7
2014-Apr-12 21:16N 40°29' W 073°60'7 7.4
2014-Apr-12 20:23N 40°23' W 073°55'0 0.2
2014-Apr-12 19:29N 40°24' W 073°55'5 5.4
2014-Apr-12 18:33N 40°28' W 073°58'7 6.2
2014-Apr-12 17:21N 40°29' W 074°07'0 0.1
2014-Apr-12 14:28N 40°29' W 074°08'5 5.6
2014-Apr-12 13:33N 40°29' W 074°01'7 6.6
2014-Apr-12 12:31N 40°24' W 073°55'0 0.3
2014-Apr-12 11:27N 40°23' W 073°55'7 7.7
2014-Apr-12 10:34N 40°29' W 074°00'6 3.9
2014-Apr-12 09:09N 40°29' W 074°07'0 0.0
2014-Apr-12 08:27N 40°29' W 074°07'6 6.3
2014-Apr-12 07:32N 40°29' W 073°60'5 1.4
2014-Apr-12 04:11N 40°29' W 074°06'1 1.4
2014-Apr-12 03:23N 40°29' W 074°07'3 1.5
2014-Apr-12 01:31N 40°29' W 074°04'8 4.2
2014-Apr-11 23:33N 40°23' W 073°55'4 3.0
2014-Apr-11 22:17N 40°27' W 073°56'7 9.3
2014-Apr-11 21:33N 40°29' W 074°05'1 0.3
2014-Apr-11 18:31N 40°29' W 074°04'7 6.2
2014-Apr-11 17:25N 40°35' W 074°01'0 0.0
2014-Apr-11 16:32N 40°35' W 074°01'0 0.0
2014-Apr-11 15:32N 40°35' W 074°01'0 0.1
2014-Apr-11 14:29N 40°35' W 074°01'0 0.0
2014-Apr-11 13:32N 40°35' W 074°01'0 0.0
2014-Apr-11 12:29N 40°35' W 074°01'0 0.0
2014-Apr-11 11:32N 40°35' W 074°01'0 0.0
2014-Apr-11 10:29N 40°35' W 074°01'0 0.0
2014-Apr-11 09:14N 40°35' W 074°01'0 0.0
2014-Apr-11 08:32N 40°35' W 074°01'0 0.0
2014-Apr-11 07:29N 40°35' W 074°01'0 0.1
2014-Apr-11 06:32N 40°35' W 074°01'0 0.0
2014-Apr-11 05:29N 40°35' W 074°01'0 0.0
2014-Apr-11 04:32N 40°35' W 074°01'0 0.0
2014-Apr-11 03:26N 40°35' W 074°01'0 0.0
2014-Apr-11 02:32N 40°35' W 074°01'0 0.0
2014-Apr-11 01:11N 40°35' W 074°01'0 0.1
2014-Apr-11 00:32N 40°35' W 074°01'0 0.0
2014-Apr-10 23:32N 40°35' W 074°01'0 0.0
2014-Apr-10 22:32N 40°35' W 074°01'0 0.0
2014-Apr-10 21:31N 40°35' W 074°01'0 0.0
2014-Apr-10 20:31N 40°35' W 074°01'0 0.1
2014-Apr-10 19:08N 40°35' W 074°01'0 0.0
2014-Apr-10 18:29N 40°35' W 074°01'0 0.1
2014-Apr-10 17:31N 40°35' W 074°01'0 0.1
2014-Apr-10 16:29N 40°35' W 074°01'0 0.0
2014-Apr-10 15:32N 40°35' W 074°01'0 0.0
2014-Apr-10 14:22N 40°35' W 074°01'0 0.0
2014-Apr-10 13:31N 40°35' W 074°01'0 0.0
2014-Apr-10 12:23N 40°35' W 074°01'0 0.0
2014-Apr-10 11:31N 40°35' W 074°01'0 0.1
2014-Apr-10 10:28N 40°35' W 074°01'0 0.1
2014-Apr-10 09:32N 40°35' W 074°01'0 0.0
2014-Apr-10 08:29N 40°35' W 074°01'0 0.0
2014-Apr-10 07:32N 40°35' W 074°01'0 0.0
2014-Apr-10 06:31N 40°35' W 074°01'0 0.1
2014-Apr-10 05:28N 40°35' W 074°01'0 0.0
2014-Apr-10 04:31N 40°35' W 074°01'0 0.0
2014-Apr-10 03:28N 40°35' W 074°01'0 0.0
2014-Apr-10 02:31N 40°35' W 074°01'0 0.0
2014-Apr-10 01:31N 40°35' W 074°01'0 0.0
2014-Apr-09 23:22N 40°35' W 074°01'0 0.0
2014-Apr-09 22:22N 40°35' W 074°01'0 0.0
2014-Apr-09 21:32N 40°35' W 074°01'0 0.0
2014-Apr-09 20:13N 40°35' W 074°01'0 0.0
2014-Apr-09 19:22N 40°35' W 074°01'0 0.0
2014-Apr-09 18:28N 40°35' W 074°01'0 0.0
2014-Apr-09 17:31N 40°35' W 074°01'0 0.0
2014-Apr-09 16:28N 40°35' W 074°01'0 0.0
2014-Apr-09 15:19N 40°35' W 074°01'0 0.0
2014-Apr-09 14:28N 40°35' W 074°01'0 0.0
2014-Apr-09 13:28N 40°35' W 074°01'0 0.0
2014-Apr-09 11:28N 40°35' W 074°01'0 0.0
2014-Apr-09 10:31N 40°35' W 074°01'0 0.0
2014-Apr-09 09:19N 40°35' W 074°01'0 0.0
2014-Apr-09 08:31N 40°35' W 074°01'0 0.0
2014-Apr-09 07:28N 40°35' W 074°01'0 0.0
2014-Apr-09 06:28N 40°35' W 074°01'0 0.0
2014-Apr-09 04:28N 40°35' W 074°01'0 0.0
2014-Apr-09 03:31N 40°35' W 074°01'0 0.0
2014-Apr-09 02:31N 40°35' W 074°01'0 0.0
2014-Apr-09 01:28N 40°35' W 074°01'0 0.0
2014-Apr-09 00:28N 40°35' W 074°01'0 0.0
2014-Apr-08 23:13N 40°35' W 074°01'0 0.0
2014-Apr-08 22:25N 40°35' W 074°01'3 3.5
2014-Apr-08 21:32N 40°32' W 074°02'4 3.4
2014-Apr-08 20:23N 40°29' W 074°06'10 5.0
2014-Apr-08 18:24N 40°23' W 073°55'0 0.0
2014-Apr-08 17:29N 40°23' W 073°55'5 5.0
2014-Apr-08 16:30N 40°28' W 073°58'8 8.0
2014-Apr-08 15:33N 40°29' W 074°07'0 0.0
2014-Apr-08 14:34N 40°29' W 074°07'1 0.6
2014-Apr-08 13:34N 40°29' W 074°07'6 5.8
2014-Apr-08 12:32N 40°29' W 073°59'6 2.7
2014-Apr-08 10:19N 40°23' W 073°55'4 5.2
2014-Apr-08 09:32N 40°27' W 073°56'1 0.3
2014-Apr-08 05:33N 40°28' W 073°57'5 4.0
2014-Apr-08 04:20N 40°23' W 073°55'1 0.5
2014-Apr-08 03:11N 40°24' W 073°56'7 7.8
2014-Apr-08 02:16N 40°29' W 074°03'2 0.6
2014-Apr-07 23:28N 40°29' W 074°05'8 7.5
2014-Apr-07 22:24N 40°26' W 073°55'2 1.7
2014-Apr-07 21:13N 40°24' W 073°55'0 0.3
2014-Apr-07 20:33N 40°24' W 073°56'7 7.3
2014-Apr-07 19:33N 40°29' W 074°03'4 1.8
2014-Apr-07 17:30N 40°29' W 074°07'0 0.1
2014-Apr-07 16:33N 40°29' W 074°08'9 8.1
2014-Apr-07 15:24N 40°26' W 073°56'3 3.3
2014-Apr-07 14:30N 40°23' W 073°55'0 0.2
2014-Apr-07 13:33N 40°24' W 073°55'9 8.3
2014-Apr-07 12:27N 40°29' W 074°05'2 2.1
2014-Apr-07 11:33N 40°29' W 074°07'0 0.0
2014-Apr-07 10:34N 40°29' W 074°07'0 0.4
2014-Apr-07 09:34N 40°29' W 074°07'4 3.4
2014-Apr-07 08:32N 40°29' W 074°03'7 7.0
2014-Apr-07 07:33N 40°25' W 073°56'1 1.0
2014-Apr-07 06:30N 40°24' W 073°55'  

Dump ship's entire track history

sailing weather and tide predictions

Padre Island — WDB4436 — position and weather